Time;durP1;ratioP1;P1;durP2;ratioP2;P2;SDS_P1;SDS_P2;PMS_P1;PMS_P2;Temp;Humidity;BMP_temperature;BMP_pressure;BME280_temperature;BME280_humidity;BME280_pressure;Samples;Min_cycle;Max_cycle;Signal;HPM_P1;HPM_P2
2023/06/30 00:00:25;;;;;;;;;;;;;;;;;;5071745;28;1918;-52
2023/06/30 00:02:55;;;;;;;;;;;;;;;;;;5071790;28;1720;-55
2023/06/30 00:05:25;;;;;;;;;;;;;;;;;;5071333;28;1774;-59
2023/06/30 00:07:58;;;;;;;;;;;;;;;;;;5071764;28;2998;-59
2023/06/30 00:10:26;;;;;;;;;;;;;;;;;;5071059;28;2598;-60
2023/06/30 00:12:53;;;;;;;;;;;;;;;;;;5071203;28;1876;-60
2023/06/30 00:15:20;;;;;;;;;;;;;;;;;;5071075;28;1891;-59
2023/06/30 00:17:48;;;;;;;;;;;;;;;;;;5071758;28;1650;-60
2023/06/30 00:20:18;;;;;;;;;;;;;;;;;;5053926;28;1916;-60
2023/06/30 00:22:45;;;;;;;;;;;;;;;;;;5050993;28;1899;-61
2023/06/30 00:25:12;;;;;;;;;;;;;;;;;;5051485;28;1952;-52
2023/06/30 00:27:41;;;;;;;;;;;;;;;;;;5050928;28;1903;-53
2023/06/30 00:30:08;;;;;;;;;;;;;;;;;;5051317;28;1865;-55
2023/06/30 00:32:35;;;;;;;;;;;;;;;;;;5050589;28;1540;-59
2023/06/30 00:35:03;;;;;;;;;;;;;;;;;;5053524;28;3069;-58
2023/06/30 00:37:32;;;;;;;;;;;;;;;;;;5069599;28;1907;-60
2023/06/30 00:39:59;;;;;;;;;;;;;;;;;;5069060;28;1974;-57
2023/06/30 00:42:27;;;;;;;;;;;;;;;;;;5070971;28;1868;-56
2023/06/30 00:44:54;;;;;;;;;;;;;;;;;;5069108;28;1914;-60
2023/06/30 00:47:21;;;;;;;;;;;;;;;;;;5070909;28;2042;-50
2023/06/30 00:49:52;;;;;;;;;;;;;;;;;;5069474;28;1770;-55
2023/06/30 00:52:19;;;;;;;;;;;;;;;;;;5071079;28;1867;-61
2023/06/30 00:54:46;;;;;;;;;;;;;;;;;;5070912;28;1924;-58
2023/06/30 00:57:14;;;;;;;;;;;;;;;;;;5068968;28;2012;-59
2023/06/30 00:59:41;;;;;;;;;;;;;;;;;;5070591;28;1966;-61
2023/06/30 01:02:12;;;;;;;;;;;;;;;;;;5069993;28;2535;-57
2023/06/30 01:04:46;;;;;;;;;;;;;;;;;;5070495;28;1944;-59
2023/06/30 01:07:20;;;;;;;;;;;;;;;;;;5050349;28;1846;-57
2023/06/30 01:10:05;;;;;;;;;;;;;;;;;;5050777;28;1658;-60
2023/06/30 01:12:34;;;;;;;;;;;;;;;;;;5050186;28;2055;-48
2023/06/30 01:15:02;;;;;;;;;;;;;;;;;;5064602;28;1775;-59
2023/06/30 01:17:29;;;;;;;;;;;;;;;;;;5069841;28;1997;-60
2023/06/30 01:19:58;;;;;;;;;;;;;;;;;;5055481;28;1916;-55
2023/06/30 01:22:54;;;;;;;;;;;;;;;;;;5050299;28;1916;-55
2023/06/30 01:25:26;;;;;;;;;;;;;;;;;;5037478;28;1623;-57
2023/06/30 01:27:55;;;;;;;;;;;;;;;;;;5049737;28;1932;-53
2023/06/30 01:30:23;;;;;;;;;;;;;;;;;;5050495;28;1932;-60
2023/06/30 01:32:54;;;;;;;;;;;;;;;;;;5049834;28;1627;-60
2023/06/30 01:35:22;;;;;;;;;;;;;;;;;;5050372;28;1580;-58
2023/06/30 01:37:51;;;;;;;;;;;;;;;;;;5049931;28;3154;-56
2023/06/30 01:40:18;;;;;;;;;;;;;;;;;;5050120;28;1981;-58
2023/06/30 01:42:46;;;;;;;;;;;;;;;;;;5050492;28;1879;-59
2023/06/30 01:45:14;;;;;;;;;;;;;;;;;;5049857;28;1608;-56
2023/06/30 01:47:43;;;;;;;;;;;;;;;;;;5050155;28;1903;-60
2023/06/30 01:50:11;;;;;;;;;;;;;;;;;;5049450;28;1956;-57
2023/06/30 01:52:38;;;;;;;;;;;;;;;;;;5050134;28;1912;-60
2023/06/30 01:55:05;;;;;;;;;;;;;;;;;;5049710;28;1904;-55
2023/06/30 01:57:32;;;;;;;;;;;;;;;;;;5050085;28;2014;-60
2023/06/30 02:00:00;;;;;;;;;;;;;;;;;;5048530;28;1880;-58
2023/06/30 02:02:38;;;;;;;;;;;;;;;;;;5049939;28;1682;-60
2023/06/30 02:05:07;;;;;;;;;;;;;;;;;;5049856;28;1869;-53
2023/06/30 02:07:35;;;;;;;;;;;;;;;;;;5049565;28;1993;-51
2023/06/30 02:10:06;;;;;;;;;;;;;;;;;;5049911;28;1646;-54
2023/06/30 02:12:35;;;;;;;;;;;;;;;;;;5048178;28;1952;-60
2023/06/30 02:15:03;;;;;;;;;;;;;;;;;;5049968;28;1948;-58
2023/06/30 02:17:32;;;;;;;;;;;;;;;;;;5048101;28;2078;-54
2023/06/30 02:19:59;;;;;;;;;;;;;;;;;;5049813;28;1983;-59
2023/06/30 02:22:27;;;;;;;;;;;;;;;;;;5049619;28;1996;-52
2023/06/30 02:24:56;;;;;;;;;;;;;;;;;;5048146;28;1658;-55
2023/06/30 02:27:24;;;;;;;;;;;;;;;;;;5049976;28;1644;-56
2023/06/30 02:29:51;;;;;;;;;;;;;;;;;;5057901;28;2023;-56
2023/06/30 02:32:19;;;;;;;;;;;;;;;;;;5069300;28;2105;-57
2023/06/30 02:34:46;;;;;;;;;;;;;;;;;;5070192;28;1679;-49
2023/06/30 02:37:13;;;;;;;;;;;;;;;;;;5072165;28;2003;-57
2023/06/30 02:39:41;;;;;;;;;;;;;;;;;;5073269;28;1972;-57
2023/06/30 02:42:08;;;;;;;;;;;;;;;;;;5071475;28;1908;-43
2023/06/30 02:44:39;;;;;;;;;;;;;;;;;;5071561;28;2646;-45
2023/06/30 02:47:08;;;;;;;;;;;;;;;;;;5072543;28;2624;-57
2023/06/30 02:49:35;;;;;;;;;;;;;;;;;;5073118;28;1966;-56
2023/06/30 02:52:02;;;;;;;;;;;;;;;;;;5071856;28;1868;-57
2023/06/30 02:54:30;;;;;;;;;;;;;;;;;;5046371;28;1855;-45
2023/06/30 02:56:57;;;;;;;;;;;;;;;;;;5051830;28;2574;-54
2023/06/30 02:59:25;;;;;;;;;;;;;;;;;;5052778;28;1877;-46
2023/06/30 03:01:52;;;;;;;;;;;;;;;;;;5052973;28;2029;-60
2023/06/30 03:04:20;;;;;;;;;;;;;;;;;;5051405;28;1924;-61
2023/06/30 03:06:49;;;;;;;;;;;;;;;;;;5051499;28;1659;-60
2023/06/30 03:09:16;;;;;;;;;;;;;;;;;;5052801;28;1990;-58
2023/06/30 03:11:44;;;;;;;;;;;;;;;;;;5051082;28;1633;-61
2023/06/30 03:14:11;;;;;;;;;;;;;;;;;;5051589;28;2085;-59
2023/06/30 03:16:41;;;;;;;;;;;;;;;;;;5050980;28;2073;-60
2023/06/30 03:19:09;;;;;;;;;;;;;;;;;;5057744;28;1904;-58
2023/06/30 03:21:40;;;;;;;;;;;;;;;;;;5050807;28;1959;-60
2023/06/30 03:24:07;;;;;;;;;;;;;;;;;;5051217;28;1971;-61
2023/06/30 03:26:36;;;;;;;;;;;;;;;;;;5051674;28;2130;-60
2023/06/30 03:29:14;;;;;;;;;;;;;;;;;;5051287;28;1789;-61
2023/06/30 03:31:41;;;;;;;;;;;;;;;;;;5052535;28;1654;-51
2023/06/30 03:34:08;;;;;;;;;;;;;;;;;;5051923;28;1865;-49
2023/06/30 03:36:36;;;;;;;;;;;;;;;;;;5052211;28;2040;-61
2023/06/30 03:39:05;;;;;;;;;;;;;;;;;;5052049;28;1591;-59
2023/06/30 03:41:32;;;;;;;;;;;;;;;;;;5051123;28;3280;-50
2023/06/30 03:44:00;;;;;;;;;;;;;;;;;;5052434;28;3279;-46
2023/06/30 03:46:27;;;;;;;;;;;;;;;;;;5050419;28;1826;-52
2023/06/30 03:48:54;;;;;;;;;;;;;;;;;;5050534;28;1945;-57
2023/06/30 03:51:22;;;;;;;;;;;;;;;;;;5051527;28;1996;-55
2023/06/30 03:53:51;;;;;;;;;;;;;;;;;;5050713;28;1960;-50
2023/06/30 03:56:20;;;;;;;;;;;;;;;;;;5050375;28;1965;-63
2023/06/30 03:58:47;;;;;;;;;;;;;;;;;;5052102;28;2129;-49
2023/06/30 04:01:14;;;;;;;;;;;;;;;;;;5051862;28;1934;-46
2023/06/30 04:03:42;;;;;;;;;;;;;;;;;;5051548;28;1774;-45
2023/06/30 04:06:09;;;;;;;;;;;;;;;;;;5051562;28;1640;-48
2023/06/30 04:08:36;;;;;;;;;;;;;;;;;;5051436;28;1615;-48
2023/06/30 04:11:04;;;;;;;;;;;;;;;;;;5051749;28;1950;-46
2023/06/30 04:13:32;;;;;;;;;;;;;;;;;;5051895;28;1975;-47
2023/06/30 04:16:00;;;;;;;;;;;;;;;;;;5051605;28;1809;-49
2023/06/30 04:18:27;;;;;;;;;;;;;;;;;;5051532;28;1944;-45
2023/06/30 04:20:54;;;;;;;;;;;;;;;;;;5051036;28;2016;-50
2023/06/30 04:23:22;;;;;;;;;;;;;;;;;;5056814;28;1959;-48
2023/06/30 04:25:50;;;;;;;;;;;;;;;;;;5070861;28;2148;-62
2023/06/30 04:28:17;;;;;;;;;;;;;;;;;;5071441;28;1920;-56
2023/06/30 04:30:44;;;;;;;;;;;;;;;;;;5071043;28;2067;-48
2023/06/30 04:33:11;;;;;;;;;;;;;;;;;;5070588;28;1586;-50
2023/06/30 04:35:43;;;;;;;;;;;;;;;;;;5070969;28;2059;-57
2023/06/30 04:38:12;;;;;;;;;;;;;;;;;;5070611;28;2691;-54
2023/06/30 04:40:39;;;;;;;;;;;;;;;;;;5071105;28;1988;-46
2023/06/30 04:43:12;;;;;;;;;;;;;;;;;;5047848;28;2079;-47
2023/06/30 04:45:39;;;;;;;;;;;;;;;;;;5051116;28;3324;-62
2023/06/30 04:48:10;;;;;;;;;;;;;;;;;;5051074;28;1666;-47
2023/06/30 04:50:37;;;;;;;;;;;;;;;;;;5050823;28;2000;-45
2023/06/30 04:53:04;;;;;;;;;;;;;;;;;;5051161;28;1967;-50
2023/06/30 04:55:31;;;;;;;;;;;;;;;;;;5050430;28;1847;-45
2023/06/30 04:57:59;;;;;;;;;;;;;;;;;;5049450;28;2506;-47
2023/06/30 05:00:26;;;;;;;;;;;;;;;;;;5050429;28;2078;-50
2023/06/30 05:02:54;;;;;;;;;;;;;;;;;;5050809;28;1976;-60
2023/06/30 05:05:21;;;;;;;;;;;;;;;;;;5050697;28;1965;-61
2023/06/30 05:07:48;;;;;;;;;;;;;;;;;;5050415;28;1775;-50
2023/06/30 05:10:15;;;;;;;;;;;;;;;;;;5050458;28;1980;-50
2023/06/30 05:12:43;;;;;;;;;;;;;;;;;;5050242;28;3287;-56
2023/06/30 05:15:10;;;;;;;;;;;;;;;;;;5050663;28;1662;-62
2023/06/30 05:17:37;;;;;;;;;;;;;;;;;;5050668;28;1963;-46
2023/06/30 05:20:08;;;;;;;;;;;;;;;;;;5048728;28;1995;-62
2023/06/30 05:22:35;;;;;;;;;;;;;;;;;;5050369;28;2050;-46
2023/06/30 05:25:03;;;;;;;;;;;;;;;;;;5049917;28;2795;-46
2023/06/30 05:27:30;;;;;;;;;;;;;;;;;;5050517;28;1710;-61
2023/06/30 05:29:57;;;;;;;;;;;;;;;;;;5050039;28;1637;-62
2023/06/30 05:32:25;;;;;;;;;;;;;;;;;;5050126;28;1976;-63
2023/06/30 05:34:52;;;;;;;;;;;;;;;;;;5050197;28;2612;-61
2023/06/30 05:37:19;;;;;;;;;;;;;;;;;;5048454;28;1914;-61
2023/06/30 05:39:46;;;;;;;;;;;;;;;;;;5050193;28;2083;-61
2023/06/30 05:42:13;;;;;;;;;;;;;;;;;;5049684;28;2006;-60
2023/06/30 05:44:41;;;;;;;;;;;;;;;;;;5050295;28;1976;-45
2023/06/30 05:47:08;;;;;;;;;;;;;;;;;;5050253;28;2018;-60
2023/06/30 05:49:35;;;;;;;;;;;;;;;;;;5049875;28;2829;-61
2023/06/30 05:52:02;;;;;;;;;;;;;;;;;;5050097;28;1532;-61
2023/06/30 05:54:30;;;;;;;;;;;;;;;;;;5049756;28;1948;-61
2023/06/30 05:56:57;;;;;;;;;;;;;;;;;;5048786;28;3219;-60
2023/06/30 05:59:28;;;;;;;;;;;;;;;;;;5049526;28;3145;-57
2023/06/30 06:01:56;;;;;;;;;;;;;;;;;;5045098;28;1923;-62
2023/06/30 06:04:23;;;;;;;;;;;;;;;;;;5048448;28;2535;-55
2023/06/30 06:06:51;;;;;;;;;;;;;;;;;;5049620;28;1975;-47
2023/06/30 06:09:18;;;;;;;;;;;;;;;;;;5050280;28;1587;-56
2023/06/30 06:11:48;;;;;;;;;;;;;;;;;;5053465;28;2794;-60
2023/06/30 06:14:16;;;;;;;;;;;;;;;;;;5054115;28;1784;-59
2023/06/30 06:16:45;;;;;;;;;;;;;;;;;;5053967;28;3296;-61
2023/06/30 06:19:14;;;;;;;;;;;;;;;;;;5053757;28;1693;-46
2023/06/30 06:21:42;;;;;;;;;;;;;;;;;;5054018;28;1981;-60
2023/06/30 06:24:09;;;;;;;;;;;;;;;;;;5053549;28;1980;-49
2023/06/30 06:26:36;;;;;;;;;;;;;;;;;;5053771;28;1965;-50
2023/06/30 06:29:03;;;;;;;;;;;;;;;;;;5053359;28;3158;-51
2023/06/30 06:31:31;;;;;;;;;;;;;;;;;;5053459;28;3240;-61
2023/06/30 06:33:58;;;;;;;;;;;;;;;;;;5053417;28;2027;-59
2023/06/30 06:36:28;;;;;;;;;;;;;;;;;;5053139;28;2094;-61
2023/06/30 06:38:55;;;;;;;;;;;;;;;;;;5053589;28;1996;-49
2023/06/30 06:41:22;;;;;;;;;;;;;;;;;;5053017;28;2051;-60
2023/06/30 06:43:50;;;;;;;;;;;;;;;;;;5053574;28;1626;-50
2023/06/30 06:46:17;;;;;;;;;;;;;;;;;;5053297;28;2023;-50
2023/06/30 06:48:44;;;;;;;;;;;;;;;;;;5048137;28;1579;-48
2023/06/30 06:51:11;;;;;;;;;;;;;;;;;;5053532;28;1670;-61
2023/06/30 06:53:39;;;;;;;;;;;;;;;;;;5052887;28;1689;-61
2023/06/30 06:56:06;;;;;;;;;;;;;;;;;;5053438;28;2135;-62
2023/06/30 06:58:38;;;;;;;;;;;;;;;;;;5050032;28;1964;-61
2023/06/30 07:01:05;;;;;;;;;;;;;;;;;;5053126;28;1597;-46
2023/06/30 07:03:33;;;;;;;;;;;;;;;;;;5052905;28;1910;-61
2023/06/30 07:06:03;;;;;;;;;;;;;;;;;;5052926;28;1733;-57
2023/06/30 07:08:34;;;;;;;;;;;;;;;;;;5052944;28;2058;-57
2023/06/30 07:11:03;;;;;;;;;;;;;;;;;;5052265;28;2140;-48
2023/06/30 07:13:30;;;;;;;;;;;;;;;;;;5052808;28;1988;-48
2023/06/30 07:15:57;;;;;;;;;;;;;;;;;;5052417;28;1976;-60
2023/06/30 07:18:25;;;;;;;;;;;;;;;;;;5052819;28;1709;-57
2023/06/30 07:20:53;;;;;;;;;;;;;;;;;;5051829;28;1673;-62
2023/06/30 07:23:23;;;;;;;;;;;;;;;;;;5047382;28;2046;-50
2023/06/30 07:25:52;;;;;;;;;;;;;;;;;;5052369;28;1980;-61
2023/06/30 07:28:22;;;;;;;;;;;;;;;;;;5052310;28;3202;-56
2023/06/30 07:30:49;;;;;;;;;;;;;;;;;;5052368;28;1950;-52
2023/06/30 07:33:17;;;;;;;;;;;;;;;;;;5052239;28;2080;-59
2023/06/30 07:35:44;;;;;;;;;;;;;;;;;;5052722;28;1567;-56
2023/06/30 07:38:12;;;;;;;;;;;;;;;;;;5052448;28;2071;-62
2023/06/30 07:40:39;;;;;;;;;;;;;;;;;;5047037;28;1943;-60
2023/06/30 07:43:21;;;;;;;;;;;;;;;;;;5052016;28;1918;-62
2023/06/30 07:45:48;;;;;;;;;;;;;;;;;;5052436;28;1986;-58
2023/06/30 07:48:16;;;;;;;;;;;;;;;;;;5052233;28;1991;-50
2023/06/30 07:50:44;;;;;;;;;;;;;;;;;;5051763;28;3146;-62
2023/06/30 07:53:25;;;;;;;;;;;;;;;;;;5052110;28;1626;-49
2023/06/30 07:55:52;;;;;;;;;;;;;;;;;;5051700;28;1635;-62
2023/06/30 07:58:19;;;;;;;;;;;;;;;;;;5052143;28;1536;-49
2023/06/30 08:00:46;;;;;;;;;;;;;;;;;;5051760;28;2003;-47
2023/06/30 08:03:14;;;;;;;;;;;;;;;;;;5051834;28;1986;-51
2023/06/30 08:05:41;;;;;;;;;;;;;;;;;;5051982;28;1964;-54
2023/06/30 08:08:09;;;;;;;;;;;;;;;;;;5046416;28;2073;-60
2023/06/30 08:10:36;;;;;;;;;;;;;;;;;;5051833;28;1964;-62
2023/06/30 08:13:05;;;;;;;;;;;;;;;;;;5051354;28;3157;-57
2023/06/30 08:15:32;;;;;;;;;;;;;;;;;;5051632;28;1871;-61
2023/06/30 08:18:00;;;;;;;;;;;;;;;;;;5051159;28;2066;-55
2023/06/30 08:20:32;;;;;;;;;;;;;;;;;;5051653;28;1726;-55
2023/06/30 08:22:59;;;;;;;;;;;;;;;;;;5051403;28;2240;-46
2023/06/30 08:25:27;;;;;;;;;;;;;;;;;;5051581;28;2071;-59
2023/06/30 08:27:54;;;;;;;;;;;;;;;;;;5051535;28;1658;-49
2023/06/30 08:30:22;;;;;;;;;;;;;;;;;;5050804;28;1707;-56
2023/06/30 08:32:51;;;;;;;;;;;;;;;;;;5051032;28;1915;-46
2023/06/30 08:35:18;;;;;;;;;;;;;;;;;;5051158;28;2042;-46
2023/06/30 08:37:46;;;;;;;;;;;;;;;;;;5051570;28;2067;-45
2023/06/30 08:40:25;;;;;;;;;;;;;;;;;;5051495;28;1971;-60
2023/06/30 08:42:53;;;;;;;;;;;;;;;;;;5051003;28;2050;-59
2023/06/30 08:45:23;;;;;;;;;;;;;;;;;;5051372;28;1790;-59
2023/06/30 08:47:51;;;;;;;;;;;;;;;;;;5071382;28;1888;-50
2023/06/30 08:50:20;;;;;;;;;;;;;;;;;;5071258;28;1594;-62
2023/06/30 08:52:47;;;;;;;;;;;;;;;;;;5070843;28;1877;-49
2023/06/30 08:55:15;;;;;;;;;;;;;;;;;;5070741;28;1997;-62
2023/06/30 08:57:42;;;;;;;;;;;;;;;;;;5070481;28;1657;-61
2023/06/30 09:00:10;;;;;;;;;;;;;;;;;;5058608;28;1687;-46
2023/06/30 09:02:38;;;;;;;;;;;;;;;;;;5050782;28;3186;-50
2023/06/30 09:05:07;;;;;;;;;;;;;;;;;;5050334;28;1854;-54
2023/06/30 09:07:51;;;;;;;;;;;;;;;;;;5050651;28;1982;-46
2023/06/30 09:10:19;;;;;;;;;;;;;;;;;;5050812;28;1555;-63
2023/06/30 09:12:48;;;;;;;;;;;;;;;;;;5057867;28;1915;-45
2023/06/30 09:15:17;;;;;;;;;;;;;;;;;;5070032;28;1956;-54
2023/06/30 09:17:45;;;;;;;;;;;;;;;;;;5063094;28;1938;-47
2023/06/30 09:20:12;;;;;;;;;;;;;;;;;;5050006;28;2130;-51
2023/06/30 09:22:40;;;;;;;;;;;;;;;;;;5050306;28;1980;-50
2023/06/30 09:25:27;;;;;;;;;;;;;;;;;;5050092;28;2075;-47
2023/06/30 09:27:55;;;;;;;;;;;;;;;;;;5050483;28;1589;-46
2023/06/30 09:30:32;;;;;;;;;;;;;;;;;;5049509;28;1964;-50
2023/06/30 09:32:59;;;;;;;;;;;;;;;;;;5049206;28;1845;-47
2023/06/30 09:35:35;;;;;;;;;;;;;;;;;;5049929;28;2019;-61
2023/06/30 09:38:02;;;;;;;;;;;;;;;;;;5049392;28;1662;-49
2023/06/30 09:40:30;;;;;;;;;;;;;;;;;;5049967;28;2165;-62
2023/06/30 09:42:57;;;;;;;;;;;;;;;;;;5048901;28;2079;-61
2023/06/30 09:45:24;;;;;;;;;;;;;;;;;;5049639;28;1681;-61
2023/06/30 09:47:54;;;;;;;;;;;;;;;;;;5049919;28;1837;-48
2023/06/30 09:50:30;;;;;;;;;;;;;;;;;;5050320;28;1941;-49
2023/06/30 09:52:58;;;;;;;;;;;;;;;;;;5049768;28;1606;-58
2023/06/30 09:55:25;;;;;;;;;;;;;;;;;;5050377;28;1755;-48
2023/06/30 09:57:53;;;;;;;;;;;;;;;;;;5049930;28;3168;-47
2023/06/30 10:00:20;;;;;;;;;;;;;;;;;;5050144;28;2866;-59
2023/06/30 10:03:05;;;;;;;;;;;;;;;;;;5049559;28;1995;-49
2023/06/30 10:05:33;;;;;;;;;;;;;;;;;;5048574;28;1863;-60
2023/06/30 10:08:01;;;;;;;;;;;;;;;;;;5049501;28;1948;-59
2023/06/30 10:10:29;;;;;;;;;;;;;;;;;;5048777;28;2326;-47
2023/06/30 10:12:58;;;;;;;;;;;;;;;;;;5050005;28;1666;-49
2023/06/30 10:15:26;;;;;;;;;;;;;;;;;;5050157;28;3145;-51
2023/06/30 10:17:54;;;;;;;;;;;;;;;;;;5050194;28;1635;-49
2023/06/30 10:20:21;;;;;;;;;;;;;;;;;;5049451;28;1663;-49
2023/06/30 10:23:00;;;;;;;;;;;;;;;;;;5049571;28;1989;-52
2023/06/30 10:25:29;;;;;;;;;;;;;;;;;;5049571;28;3103;-48
2023/06/30 10:27:56;;;;;;;;;;;;;;;;;;5049997;28;1650;-48
2023/06/30 10:30:27;;;;;;;;;;;;;;;;;;5050693;28;1734;-45
2023/06/30 10:32:54;;;;;;;;;;;;;;;;;;5069777;28;1791;-49
2023/06/30 10:35:22;;;;;;;;;;;;;;;;;;5069572;28;1591;-46
2023/06/30 10:37:49;;;;;;;;;;;;;;;;;;5049375;28;2052;-48
2023/06/30 10:40:24;;;;;;;;;;;;;;;;;;5049590;28;3177;-60
2023/06/30 10:42:53;;;;;;;;;;;;;;;;;;5049222;28;1979;-60
2023/06/30 10:45:20;;;;;;;;;;;;;;;;;;5049705;28;1740;-47
2023/06/30 10:47:49;;;;;;;;;;;;;;;;;;5049054;28;2054;-47
2023/06/30 10:50:16;;;;;;;;;;;;;;;;;;5048364;28;1675;-59
2023/06/30 10:52:53;;;;;;;;;;;;;;;;;;5049603;28;1901;-52
2023/06/30 10:55:26;;;;;;;;;;;;;;;;;;5049743;28;1957;-49
2023/06/30 10:57:54;;;;;;;;;;;;;;;;;;5052872;28;2004;-51
2023/06/30 11:00:24;;;;;;;;;;;;;;;;;;5052944;28;2149;-57
2023/06/30 11:02:57;;;;;;;;;;;;;;;;;;5052743;28;1977;-58
2023/06/30 11:05:32;;;;;;;;;;;;;;;;;;5053218;28;1648;-50
2023/06/30 11:08:04;;;;;;;;;;;;;;;;;;5052797;28;2070;-57
2023/06/30 11:10:35;;;;;;;;;;;;;;;;;;5052973;28;1655;-47
2023/06/30 11:13:05;;;;;;;;;;;;;;;;;;5052973;28;1967;-51
2023/06/30 11:15:40;;;;;;;;;;;;;;;;;;5052768;28;1611;-50
2023/06/30 11:18:14;;;;;;;;;;;;;;;;;;5052840;28;1698;-50
2023/06/30 11:21:01;;;;;;;;;;;;;;;;;;5048015;28;1588;-58
2023/06/30 11:23:29;;;;;;;;;;;;;;;;;;5051047;28;2312;-56
2023/06/30 11:25:59;;;;;;;;;;;;;;;;;;5052927;28;1977;-59
2023/06/30 11:28:26;;;;;;;;;;;;;;;;;;5052303;28;2059;-53
2023/06/30 11:30:54;;;;;;;;;;;;;;;;;;5052756;28;1883;-50
2023/06/30 11:33:21;;;;;;;;;;;;;;;;;;5052517;28;1965;-59
2023/06/30 11:35:52;;;;;;;;;;;;;;;;;;5051913;28;2074;-47
2023/06/30 11:38:20;;;;;;;;;;;;;;;;;;5051591;28;1641;-49
2023/06/30 11:40:48;;;;;;;;;;;;;;;;;;5052042;28;1816;-58
2023/06/30 11:43:16;;;;;;;;;;;;;;;;;;5052434;28;1910;-48
2023/06/30 11:45:54;;;;;;;;;;;;;;;;;;5052018;28;1999;-54
2023/06/30 11:48:22;;;;;;;;;;;;;;;;;;5052159;28;1670;-49
2023/06/30 11:50:49;;;;;;;;;;;;;;;;;;5051792;28;1845;-45
2023/06/30 11:53:16;;;;;;;;;;;;;;;;;;5052243;28;2030;-50
2023/06/30 11:55:44;;;;;;;;;;;;;;;;;;5052027;28;2123;-47
2023/06/30 11:58:16;;;;;;;;;;;;;;;;;;5051647;28;2077;-57
2023/06/30 12:00:45;;;;;;;;;;;;;;;;;;5051888;28;2070;-57
2023/06/30 12:03:19;;;;;;;;;;;;;;;;;;5051588;28;2102;-52
2023/06/30 12:05:59;;;;;;;;;;;;;;;;;;5051823;28;3198;-58
2023/06/30 12:08:30;;;;;;;;;;;;;;;;;;5051228;28;1654;-59
2023/06/30 12:10:57;;;;;;;;;;;;;;;;;;5067359;28;1881;-59
2023/06/30 12:13:27;;;;;;;;;;;;;;;;;;5071261;28;2036;-59
2023/06/30 12:15:58;;;;;;;;;;;;;;;;;;5057193;28;1979;-60
2023/06/30 12:18:36;;;;;;;;;;;;;;;;;;5050009;28;2111;-59
2023/06/30 12:21:10;;;;;;;;;;;;;;;;;;5051810;28;1646;-46
2023/06/30 12:23:41;;;;;;;;;;;;;;;;;;5050907;28;2158;-54
2023/06/30 12:26:10;;;;;;;;;;;;;;;;;;5051456;28;1713;-58
2023/06/30 12:28:37;;;;;;;;;;;;;;;;;;5051089;28;1677;-59
2023/06/30 12:31:04;;;;;;;;;;;;;;;;;;5051693;28;2130;-59
2023/06/30 12:33:32;;;;;;;;;;;;;;;;;;5051067;28;2039;-60
2023/06/30 12:36:03;;;;;;;;;;;;;;;;;;5050008;28;2372;-61
2023/06/30 12:38:30;;;;;;;;;;;;;;;;;;5051196;28;3165;-61
2023/06/30 12:40:58;;;;;;;;;;;;;;;;;;5050971;28;1574;-60
2023/06/30 12:43:27;;;;;;;;;;;;;;;;;;5051089;28;1910;-60
2023/06/30 12:45:54;;;;;;;;;;;;;;;;;;5050759;28;2184;-60
2023/06/30 12:48:21;;;;;;;;;;;;;;;;;;5050966;28;1592;-57
2023/06/30 12:50:49;;;;;;;;;;;;;;;;;;5050948;28;3060;-59
2023/06/30 12:53:17;;;;;;;;;;;;;;;;;;5045672;28;1806;-47
2023/06/30 12:55:46;;;;;;;;;;;;;;;;;;5051048;28;1759;-61
2023/06/30 12:58:13;;;;;;;;;;;;;;;;;;5050439;28;1947;-59
2023/06/30 13:00:40;;;;;;;;;;;;;;;;;;5050947;28;1595;-60
2023/06/30 13:03:10;;;;;;;;;;;;;;;;;;5048082;28;3232;-54
2023/06/30 13:05:38;;;;;;;;;;;;;;;;;;5050936;28;1676;-60
2023/06/30 13:08:05;;;;;;;;;;;;;;;;;;5050814;28;1976;-60
2023/06/30 13:10:33;;;;;;;;;;;;;;;;;;5050310;28;2862;-61
2023/06/30 13:13:00;;;;;;;;;;;;;;;;;;5050600;28;1868;-61
2023/06/30 13:15:29;;;;;;;;;;;;;;;;;;5051523;28;2079;-61
2023/06/30 13:17:57;;;;;;;;;;;;;;;;;;5070594;28;1663;-59
2023/06/30 13:20:25;;;;;;;;;;;;;;;;;;5050340;28;2078;-59
2023/06/30 13:22:52;;;;;;;;;;;;;;;;;;5050651;28;1671;-61
2023/06/30 13:25:36;;;;;;;;;;;;;;;;;;5050170;28;2131;-60
2023/06/30 13:28:06;;;;;;;;;;;;;;;;;;5050374;28;2066;-60
2023/06/30 13:30:34;;;;;;;;;;;;;;;;;;5049963;28;2069;-56
2023/06/30 13:33:01;;;;;;;;;;;;;;;;;;5050264;28;2039;-60
2023/06/30 13:35:29;;;;;;;;;;;;;;;;;;5050426;28;2763;-57
2023/06/30 13:37:58;;;;;;;;;;;;;;;;;;5050081;28;3328;-60
2023/06/30 13:40:25;;;;;;;;;;;;;;;;;;5050293;28;1962;-60
2023/06/30 13:42:53;;;;;;;;;;;;;;;;;;5049657;28;2070;-60
2023/06/30 13:45:21;;;;;;;;;;;;;;;;;;5050265;28;2038;-60
2023/06/30 13:47:48;;;;;;;;;;;;;;;;;;5050172;28;1631;-51
2023/06/30 13:50:16;;;;;;;;;;;;;;;;;;5049746;28;1986;-59
2023/06/30 13:52:43;;;;;;;;;;;;;;;;;;5050188;28;2668;-59
2023/06/30 13:55:10;;;;;;;;;;;;;;;;;;5049959;28;1709;-59
2023/06/30 13:57:38;;;;;;;;;;;;;;;;;;5050196;28;1919;-60
2023/06/30 14:00:05;;;;;;;;;;;;;;;;;;5049568;28;2097;-58
2023/06/30 14:02:32;;;;;;;;;;;;;;;;;;5050017;28;1849;-60
2023/06/30 14:04:59;;;;;;;;;;;;;;;;;;5049858;28;1916;-61
2023/06/30 14:07:27;;;;;;;;;;;;;;;;;;5049503;28;3124;-60
2023/06/30 14:09:56;;;;;;;;;;;;;;;;;;5049993;28;1623;-56
2023/06/30 14:12:23;;;;;;;;;;;;;;;;;;5049615;28;2713;-59
2023/06/30 14:14:50;;;;;;;;;;;;;;;;;;5050055;28;3143;-60
2023/06/30 14:17:17;;;;;;;;;;;;;;;;;;5049900;28;1896;-59
2023/06/30 14:19:47;;;;;;;;;;;;;;;;;;5049502;28;3262;-55
2023/06/30 14:22:14;;;;;;;;;;;;;;;;;;5049760;28;2077;-59
2023/06/30 14:24:41;;;;;;;;;;;;;;;;;;5049517;28;1940;-59
2023/06/30 14:27:08;;;;;;;;;;;;;;;;;;5050120;28;1982;-59
2023/06/30 14:29:41;;;;;;;;;;;;;;;;;;5049335;28;2075;-54
2023/06/30 14:32:09;;;;;;;;;;;;;;;;;;5065634;28;1938;-59
2023/06/30 14:34:37;;;;;;;;;;;;;;;;;;5073530;28;1595;-59
2023/06/30 14:37:04;;;;;;;;;;;;;;;;;;5072865;28;1555;-59
2023/06/30 14:39:32;;;;;;;;;;;;;;;;;;5073403;28;2864;-58
2023/06/30 14:41:59;;;;;;;;;;;;;;;;;;5073146;28;1678;-56
2023/06/30 14:44:28;;;;;;;;;;;;;;;;;;5073384;28;2977;-58
2023/06/30 14:46:58;;;;;;;;;;;;;;;;;;5072882;28;1765;-58
2023/06/30 14:49:28;;;;;;;;;;;;;;;;;;5073080;28;2043;-51
2023/06/30 14:51:58;;;;;;;;;;;;;;;;;;5073214;28;3314;-59
2023/06/30 14:54:25;;;;;;;;;;;;;;;;;;5072830;28;2123;-59
2023/06/30 14:56:52;;;;;;;;;;;;;;;;;;5073133;28;1974;-59
2023/06/30 14:59:20;;;;;;;;;;;;;;;;;;5072602;28;2070;-57
2023/06/30 15:01:47;;;;;;;;;;;;;;;;;;5073184;28;1908;-58
2023/06/30 15:04:14;;;;;;;;;;;;;;;;;;5072357;28;2806;-58
2023/06/30 15:06:41;;;;;;;;;;;;;;;;;;5073074;28;1933;-60
2023/06/30 15:09:09;;;;;;;;;;;;;;;;;;5072890;28;2780;-60
2023/06/30 15:11:36;;;;;;;;;;;;;;;;;;5072286;28;1659;-59
2023/06/30 15:14:03;;;;;;;;;;;;;;;;;;5072995;28;1803;-60
2023/06/30 15:16:30;;;;;;;;;;;;;;;;;;5072265;28;2813;-60
2023/06/30 15:18:57;;;;;;;;;;;;;;;;;;5066086;28;3265;-59
2023/06/30 15:21:25;;;;;;;;;;;;;;;;;;5052738;28;1571;-57
2023/06/30 15:23:52;;;;;;;;;;;;;;;;;;5052412;28;1965;-59
2023/06/30 15:26:19;;;;;;;;;;;;;;;;;;5052733;28;2057;-59
2023/06/30 15:28:46;;;;;;;;;;;;;;;;;;5056350;28;1670;-55
2023/06/30 15:31:13;;;;;;;;;;;;;;;;;;5072709;28;1670;-55
2023/06/30 15:33:41;;;;;;;;;;;;;;;;;;5072279;28;1861;-60
2023/06/30 15:36:09;;;;;;;;;;;;;;;;;;5072017;28;1976;-60
2023/06/30 15:38:36;;;;;;;;;;;;;;;;;;5072438;28;1663;-47
2023/06/30 15:41:04;;;;;;;;;;;;;;;;;;5071923;28;2011;-53
2023/06/30 15:43:48;;;;;;;;;;;;;;;;;;5070786;28;1964;-47
2023/06/30 15:46:16;;;;;;;;;;;;;;;;;;5072039;28;1818;-51
2023/06/30 15:48:43;;;;;;;;;;;;;;;;;;5072348;28;2161;-60
2023/06/30 15:51:11;;;;;;;;;;;;;;;;;;5063337;28;3401;-60
2023/06/30 15:53:38;;;;;;;;;;;;;;;;;;5052172;28;1992;-60
2023/06/30 15:56:05;;;;;;;;;;;;;;;;;;5052020;28;1723;-60
2023/06/30 15:58:32;;;;;;;;;;;;;;;;;;5051630;28;2047;-60
2023/06/30 16:01:00;;;;;;;;;;;;;;;;;;5052063;28;1575;-60
2023/06/30 16:03:27;;;;;;;;;;;;;;;;;;5051584;28;2100;-60
2023/06/30 16:05:54;;;;;;;;;;;;;;;;;;5051969;28;2086;-59
2023/06/30 16:08:22;;;;;;;;;;;;;;;;;;5051954;28;2107;-59
2023/06/30 16:10:49;;;;;;;;;;;;;;;;;;5046578;28;1663;-60
2023/06/30 16:13:18;;;;;;;;;;;;;;;;;;5051984;28;3304;-60
2023/06/30 16:15:46;;;;;;;;;;;;;;;;;;5051954;28;2691;-60
2023/06/30 16:18:13;;;;;;;;;;;;;;;;;;5051703;28;2077;-58
2023/06/30 16:20:40;;;;;;;;;;;;;;;;;;5051361;28;1988;-60
2023/06/30 16:23:08;;;;;;;;;;;;;;;;;;5051459;28;1636;-59
2023/06/30 16:25:35;;;;;;;;;;;;;;;;;;5051483;28;2004;-60
2023/06/30 16:28:02;;;;;;;;;;;;;;;;;;5051215;28;1609;-60
2023/06/30 16:30:32;;;;;;;;;;;;;;;;;;5051593;28;1960;-60
2023/06/30 16:33:00;;;;;;;;;;;;;;;;;;5050788;28;1983;-61
2023/06/30 16:35:27;;;;;;;;;;;;;;;;;;5051551;28;1650;-60
2023/06/30 16:37:55;;;;;;;;;;;;;;;;;;5050739;28;2025;-53
2023/06/30 16:40:23;;;;;;;;;;;;;;;;;;5051288;28;1806;-60
2023/06/30 16:42:50;;;;;;;;;;;;;;;;;;5051394;28;1775;-60
2023/06/30 16:45:20;;;;;;;;;;;;;;;;;;5050891;28;2095;-57
2023/06/30 16:47:47;;;;;;;;;;;;;;;;;;5051434;28;1931;-59
2023/06/30 16:50:18;;;;;;;;;;;;;;;;;;5050429;28;1698;-61
2023/06/30 16:52:45;;;;;;;;;;;;;;;;;;5050924;28;2051;-60
2023/06/30 16:55:12;;;;;;;;;;;;;;;;;;5050755;28;2019;-60
2023/06/30 16:57:40;;;;;;;;;;;;;;;;;;5050872;28;2696;-60
2023/06/30 17:00:08;;;;;;;;;;;;;;;;;;5050928;28;1853;-61
2023/06/30 17:02:36;;;;;;;;;;;;;;;;;;5050408;28;2064;-61
2023/06/30 17:05:03;;;;;;;;;;;;;;;;;;5049573;28;2240;-60
2023/06/30 17:07:31;;;;;;;;;;;;;;;;;;5048616;28;2170;-60
2023/06/30 17:09:58;;;;;;;;;;;;;;;;;;5048924;28;2030;-61
2023/06/30 17:12:25;;;;;;;;;;;;;;;;;;5048982;28;1972;-60